createdAt,value
2023-06-04T00:00:40.590Z,1018.21
2023-06-04T00:01:41.240Z,1018.26
2023-06-04T00:02:41.277Z,1018.22
2023-06-04T00:03:41.450Z,1018.25
2023-06-04T00:04:40.572Z,1018.27
2023-06-04T00:05:40.518Z,1018.25
2023-06-04T00:06:41.191Z,1018.23
2023-06-04T00:07:41.190Z,1018.16
2023-06-04T00:08:41.172Z,1018.19
2023-06-04T00:09:41.141Z,1018.19
2023-06-04T00:10:40.446Z,1018.18
2023-06-04T00:11:41.157Z,1018.16
2023-06-04T00:12:41.128Z,1018.14
2023-06-04T00:13:42.865Z,1018.20
2023-06-04T00:14:41.087Z,1018.10
2023-06-04T00:15:40.392Z,1018.12
2023-06-04T00:16:41.136Z,1018.13
2023-06-04T00:17:40.424Z,1018.13
2023-06-04T00:18:41.044Z,1018.11
2023-06-04T00:19:41.050Z,1018.10
2023-06-04T00:20:41.040Z,1018.07
2023-06-04T00:21:41.025Z,1018.07
2023-06-04T00:22:41.017Z,1018.07
2023-06-04T00:23:40.381Z,1018.10
2023-06-04T00:24:40.295Z,1018.09
2023-06-04T00:25:40.994Z,1018.09
2023-06-04T00:26:40.987Z,1018.09
2023-06-04T00:27:40.273Z,1018.08
2023-06-04T00:28:40.305Z,1018.09
2023-06-04T00:29:40.273Z,1018.13
2023-06-04T00:30:40.940Z,1018.13
2023-06-04T00:31:40.975Z,1018.12
2023-06-04T00:32:40.938Z,1018.14
2023-06-04T00:33:40.218Z,1018.13
2023-06-04T00:34:40.215Z,1018.13
2023-06-04T00:35:40.877Z,1018.11
2023-06-04T00:36:40.881Z,1018.12
2023-06-04T00:37:40.838Z,1018.15
2023-06-04T00:38:40.849Z,1018.15
2023-06-04T00:39:40.135Z,1018.12
2023-06-04T00:40:40.118Z,1018.15
2023-06-04T00:41:40.814Z,1018.11
2023-06-04T00:42:40.802Z,1018.12
2023-06-04T00:43:40.794Z,1018.12
2023-06-04T00:44:40.780Z,1018.12
2023-06-04T00:45:40.104Z,1018.11
2023-06-04T00:46:40.081Z,1018.12
2023-06-04T00:47:40.794Z,1018.08
2023-06-04T00:48:40.761Z,1018.12
2023-06-04T00:49:40.734Z,1018.06
2023-06-04T00:50:40.042Z,1018.11
2023-06-04T00:51:40.687Z,1018.05
2023-06-04T00:52:40.747Z,1018.08
2023-06-04T00:53:40.693Z,1018.04
2023-06-04T00:54:40.684Z,1018.03
2023-06-04T00:55:40.649Z,1018.02
2023-06-04T00:56:40.632Z,1018.00
2023-06-04T00:57:39.975Z,1018.00
2023-06-04T00:58:40.636Z,1018.02
2023-06-04T00:59:40.623Z,1018.01
2023-06-04T01:00:40.596Z,1018.01
2023-06-04T01:01:39.958Z,1018.02
2023-06-04T01:02:40.624Z,1018.00
2023-06-04T01:03:39.935Z,1018.01
2023-06-04T01:04:40.568Z,1018.01
2023-06-04T01:05:40.542Z,1018.01
2023-06-04T01:06:40.548Z,1017.99
2023-06-04T01:07:40.546Z,1018.01
2023-06-04T01:08:40.538Z,1018.05
2023-06-04T01:09:39.831Z,1018.00
2023-06-04T01:10:39.848Z,1017.99
2023-06-04T01:11:40.504Z,1018.03
2023-06-04T01:12:40.487Z,1018.02
2023-06-04T01:13:40.470Z,1018.05
2023-06-04T01:14:39.777Z,1018.06
2023-06-04T01:15:42.204Z,1017.99
2023-06-04T01:16:40.460Z,1018.03
2023-06-04T01:17:40.448Z,1018.04
2023-06-04T01:18:40.419Z,1018.02
2023-06-04T01:19:40.387Z,1018.00
2023-06-04T01:20:40.393Z,1018.07
2023-06-04T01:21:39.711Z,1018.03
2023-06-04T01:22:40.374Z,1018.03
2023-06-04T01:23:40.458Z,1018.05
2023-06-04T01:24:40.335Z,1017.99
2023-06-04T01:25:39.637Z,1017.97
2023-06-04T01:26:40.327Z,1017.97
2023-06-04T01:27:39.652Z,1017.96
2023-06-04T01:28:40.288Z,1018.00
2023-06-04T01:29:40.296Z,1017.94
2023-06-04T01:30:40.288Z,1017.95
2023-06-04T01:31:40.305Z,1017.98
2023-06-04T01:32:39.592Z,1017.96
2023-06-04T01:33:40.253Z,1017.96
2023-06-04T01:34:40.237Z,1017.93
2023-06-04T01:35:40.233Z,1017.94
2023-06-04T01:36:40.220Z,1018.00
2023-06-04T01:37:39.546Z,1018.00
2023-06-04T01:38:39.520Z,1017.96
2023-06-04T01:39:40.188Z,1017.99
2023-06-04T01:40:40.184Z,1017.98
2023-06-04T01:41:40.171Z,1017.94
2023-06-04T01:42:40.133Z,1017.97
2023-06-04T01:43:39.453Z,1018.01
2023-06-04T01:44:40.133Z,1018.01
2023-06-04T01:45:39.460Z,1018.01
2023-06-04T01:46:39.478Z,1017.99
2023-06-04T01:47:40.136Z,1018.02
2023-06-04T01:48:40.128Z,1018.05
2023-06-04T01:49:39.387Z,1018.06
2023-06-04T01:50:40.072Z,1018.03
2023-06-04T01:51:40.041Z,1018.01
2023-06-04T01:52:40.052Z,1018.00
2023-06-04T01:53:40.036Z,1017.99
2023-06-04T01:54:39.332Z,1018.00
2023-06-04T01:55:39.348Z,1017.99
2023-06-04T01:56:39.986Z,1017.99
2023-06-04T01:57:39.291Z,1018.00
2023-06-04T01:58:39.982Z,1018.02
2023-06-04T01:59:39.972Z,1018.01
2023-06-04T02:00:39.950Z,1018.03
2023-06-04T02:01:39.445Z,1018.09
2023-06-04T02:02:39.982Z,1018.05
2023-06-04T02:03:39.978Z,1018.02
2023-06-04T02:04:39.921Z,1018.01
2023-06-04T02:05:39.890Z,1017.99
2023-06-04T02:06:39.192Z,1018.05
2023-06-04T02:07:39.191Z,1018.04
2023-06-04T02:08:39.874Z,1018.04
2023-06-04T02:09:39.859Z,1018.05
2023-06-04T02:10:39.165Z,1018.06
2023-06-04T02:11:42.894Z,1018.02
2023-06-04T02:12:42.337Z,1018.02
2023-06-04T02:13:39.828Z,1018.01
2023-06-04T02:14:39.132Z,1018.05
2023-06-04T02:15:39.796Z,1018.03
2023-06-04T02:16:39.817Z,1018.03
2023-06-04T02:17:39.798Z,1018.05
2023-06-04T02:18:39.087Z,1018.05
2023-06-04T02:19:39.085Z,1018.02
2023-06-04T02:20:39.749Z,1018.02
2023-06-04T02:21:39.731Z,1017.99
2023-06-04T02:22:39.729Z,1017.98
2023-06-04T02:23:39.047Z,1017.95
2023-06-04T02:24:39.683Z,1017.95
2023-06-04T02:25:39.690Z,1017.95
2023-06-04T02:26:39.686Z,1017.95
2023-06-04T02:27:39.677Z,1017.90
2023-06-04T02:28:39.005Z,1017.91
2023-06-04T02:29:39.637Z,1017.91
2023-06-04T02:30:39.652Z,1017.90
2023-06-04T02:31:39.669Z,1017.94
2023-06-04T02:32:39.712Z,1017.92
2023-06-04T02:33:39.591Z,1017.97
2023-06-04T02:34:39.591Z,1017.96
2023-06-04T02:35:39.590Z,1017.93
2023-06-04T02:36:39.585Z,1017.93
2023-06-04T02:37:39.564Z,1017.91
2023-06-04T02:38:39.553Z,1017.94
2023-06-04T02:39:39.546Z,1017.94
2023-06-04T02:40:39.540Z,1017.95
2023-06-04T02:41:38.843Z,1017.96
2023-06-04T02:42:38.876Z,1017.93
2023-06-04T02:43:39.476Z,1017.92
2023-06-04T02:44:39.496Z,1017.91
2023-06-04T02:45:39.514Z,1017.93
2023-06-04T02:46:39.474Z,1017.95
2023-06-04T02:47:38.823Z,1018.00
2023-06-04T02:48:38.761Z,1017.98
2023-06-04T02:49:38.752Z,1017.98
2023-06-04T02:50:39.425Z,1018.01
2023-06-04T02:51:39.391Z,1017.97
2023-06-04T02:52:38.750Z,1017.99
2023-06-04T02:53:38.707Z,1017.98
2023-06-04T02:54:39.377Z,1017.99
2023-06-04T02:55:39.373Z,1017.98
2023-06-04T02:56:38.697Z,1017.98
2023-06-04T02:57:39.353Z,1018.05
2023-06-04T02:58:38.642Z,1017.99
2023-06-04T02:59:38.654Z,1017.99
2023-06-04T03:00:38.794Z,1017.98
2023-06-04T03:01:39.323Z,1017.99
2023-06-04T03:02:38.665Z,1018.02
2023-06-04T03:03:39.334Z,1018.01
2023-06-04T03:04:38.596Z,1018.04
2023-06-04T03:05:39.241Z,1018.02
2023-06-04T03:06:39.266Z,1018.02
2023-06-04T03:07:39.241Z,1018.00
2023-06-04T03:08:39.257Z,1018.04
2023-06-04T03:09:39.227Z,1018.07
2023-06-04T03:10:39.191Z,1018.06
2023-06-04T03:11:39.199Z,1018.05
2023-06-04T03:12:38.530Z,1018.08
2023-06-04T03:13:39.254Z,1018.06
2023-06-04T03:14:39.162Z,1018.08
2023-06-04T03:15:38.610Z,1018.04
2023-06-04T03:16:38.507Z,1018.05
2023-06-04T03:17:39.299Z,1018.02
2023-06-04T03:18:38.524Z,1018.08
2023-06-04T03:19:38.451Z,1018.08
2023-06-04T03:20:39.117Z,1018.06
2023-06-04T03:21:39.094Z,1018.03
2023-06-04T03:22:39.076Z,1018.03
2023-06-04T03:23:39.102Z,1018.01
2023-06-04T03:24:39.035Z,1018.02
2023-06-04T03:25:39.047Z,1018.01
2023-06-04T03:26:39.035Z,1018.00
2023-06-04T03:27:39.024Z,1017.99
2023-06-04T03:28:38.327Z,1018.03
2023-06-04T03:29:38.995Z,1018.06
2023-06-04T03:30:38.998Z,1018.02
2023-06-04T03:31:39.022Z,1018.05
2023-06-04T03:32:38.977Z,1018.04
2023-06-04T03:33:38.938Z,1018.04
2023-06-04T03:34:38.270Z,1018.02
2023-06-04T03:35:38.938Z,1018.02
2023-06-04T03:36:38.926Z,1018.06
2023-06-04T03:37:38.920Z,1018.09
2023-06-04T03:38:38.310Z,1018.14
2023-06-04T03:39:38.216Z,1018.09
2023-06-04T03:40:38.209Z,1018.07
2023-06-04T03:41:38.870Z,1018.08
2023-06-04T03:42:38.865Z,1018.03
2023-06-04T03:43:38.828Z,1017.98
2023-06-04T03:44:38.838Z,1018.01
2023-06-04T03:45:38.900Z,1018.06
2023-06-04T03:46:38.882Z,1018.02
2023-06-04T03:47:38.967Z,1017.98
2023-06-04T03:48:38.861Z,1017.98
2023-06-04T03:49:38.902Z,1017.99
2023-06-04T03:50:38.772Z,1017.99
2023-06-04T03:51:38.762Z,1018.00
2023-06-04T03:52:38.761Z,1018.03
2023-06-04T03:53:38.045Z,1018.06
2023-06-04T03:54:38.733Z,1017.99
2023-06-04T03:55:38.727Z,1018.00
2023-06-04T03:56:38.708Z,1018.04
2023-06-04T03:57:38.681Z,1018.00
2023-06-04T03:58:38.026Z,1018.04
2023-06-04T03:59:38.028Z,1018.07
2023-06-04T04:00:38.667Z,1018.08
2023-06-04T04:01:38.659Z,1018.05
2023-06-04T04:02:38.915Z,1018.13
2023-06-04T04:03:38.740Z,1018.11
2023-06-04T04:04:38.626Z,1018.13
2023-06-04T04:05:38.608Z,1018.18
2023-06-04T04:06:38.587Z,1018.13
2023-06-04T04:07:38.590Z,1018.14
2023-06-04T04:08:37.889Z,1018.13
2023-06-04T04:09:38.574Z,1018.13
2023-06-04T04:10:38.559Z,1018.15
2023-06-04T04:11:38.545Z,1018.15
2023-06-04T04:12:38.574Z,1018.21
2023-06-04T04:13:38.529Z,1018.15
2023-06-04T04:14:37.826Z,1018.18
2023-06-04T04:15:38.489Z,1018.19
2023-06-04T04:16:38.521Z,1018.22
2023-06-04T04:17:38.488Z,1018.18
2023-06-04T04:18:38.477Z,1018.15
2023-06-04T04:19:37.780Z,1018.17
2023-06-04T04:20:38.455Z,1018.22
2023-06-04T04:21:38.439Z,1018.21
2023-06-04T04:22:37.751Z,1018.28
2023-06-04T04:23:38.448Z,1018.30
2023-06-04T04:24:38.398Z,1018.29
2023-06-04T04:25:38.388Z,1018.27
2023-06-04T04:26:37.709Z,1018.29
2023-06-04T04:27:37.687Z,1018.26
2023-06-04T04:28:38.388Z,1018.29
2023-06-04T04:29:38.340Z,1018.31
2023-06-04T04:30:38.390Z,1018.33
2023-06-04T04:31:38.409Z,1018.31
2023-06-04T04:32:38.342Z,1018.37
2023-06-04T04:33:37.654Z,1018.38
2023-06-04T04:34:38.282Z,1018.39
2023-06-04T04:35:38.290Z,1018.37
2023-06-04T04:36:38.276Z,1018.40
2023-06-04T04:37:37.578Z,1018.46
2023-06-04T04:38:37.588Z,1018.41
2023-06-04T04:39:38.227Z,1018.39
2023-06-04T04:40:38.236Z,1018.40
2023-06-04T04:41:38.225Z,1018.42
2023-06-04T04:42:37.517Z,1018.39
2023-06-04T04:43:37.546Z,1018.43
2023-06-04T04:44:38.209Z,1018.46
2023-06-04T04:45:38.191Z,1018.48
2023-06-04T04:46:38.242Z,1018.51
2023-06-04T04:47:38.206Z,1018.53
2023-06-04T04:48:38.137Z,1018.55
2023-06-04T04:49:38.142Z,1018.52
2023-06-04T04:50:39.881Z,1018.56
2023-06-04T04:51:38.111Z,1018.57
2023-06-04T04:52:38.086Z,1018.63
2023-06-04T04:53:38.088Z,1018.59
2023-06-04T04:54:38.084Z,1018.62
2023-06-04T04:55:38.075Z,1018.59
2023-06-04T04:56:38.060Z,1018.61
2023-06-04T04:57:38.033Z,1018.61
2023-06-04T04:58:38.041Z,1018.61
2023-06-04T04:59:38.028Z,1018.58
2023-06-04T05:00:37.318Z,1018.58
2023-06-04T05:01:37.349Z,1018.57
2023-06-04T05:02:38.039Z,1018.60
2023-06-04T05:03:38.019Z,1018.60
2023-06-04T05:04:38.124Z,1018.59
2023-06-04T05:05:38.018Z,1018.62
2023-06-04T05:06:37.933Z,1018.57
2023-06-04T05:07:37.942Z,1018.58
2023-06-04T05:08:37.934Z,1018.61
2023-06-04T05:09:37.933Z,1018.59
2023-06-04T05:10:37.924Z,1018.60
2023-06-04T05:11:37.883Z,1018.57
2023-06-04T05:12:37.215Z,1018.61
2023-06-04T05:13:37.187Z,1018.62
2023-06-04T05:14:37.879Z,1018.64
2023-06-04T05:15:37.845Z,1018.65
2023-06-04T05:16:37.184Z,1018.59
2023-06-04T05:17:37.161Z,1018.64
2023-06-04T05:18:37.838Z,1018.61
2023-06-04T05:19:37.809Z,1018.60
2023-06-04T05:20:37.792Z,1018.60
2023-06-04T05:21:37.797Z,1018.59
2023-06-04T05:22:37.796Z,1018.63
2023-06-04T05:23:37.790Z,1018.63
2023-06-04T05:24:37.080Z,1018.67
2023-06-04T05:25:37.728Z,1018.64
2023-06-04T05:26:37.744Z,1018.67
2023-06-04T05:27:37.745Z,1018.66
2023-06-04T05:28:37.718Z,1018.64
2023-06-04T05:29:37.692Z,1018.62
2023-06-04T05:30:37.022Z,1018.64
2023-06-04T05:31:37.861Z,1018.64
2023-06-04T05:32:37.689Z,1018.65
2023-06-04T05:33:37.664Z,1018.64
2023-06-04T05:34:36.982Z,1018.68
2023-06-04T05:35:36.952Z,1018.71
2023-06-04T05:36:36.942Z,1018.66
2023-06-04T05:37:37.624Z,1018.70
2023-06-04T05:38:37.615Z,1018.69
2023-06-04T05:39:37.587Z,1018.68
2023-06-04T05:40:37.588Z,1018.69
2023-06-04T05:41:36.894Z,1018.70
2023-06-04T05:42:36.882Z,1018.74
2023-06-04T05:43:37.549Z,1018.72
2023-06-04T05:44:36.895Z,1018.71
2023-06-04T05:45:37.566Z,1018.72
2023-06-04T05:46:36.827Z,1018.75
2023-06-04T05:47:36.851Z,1018.80
2023-06-04T05:48:36.841Z,1018.84
2023-06-04T05:49:36.797Z,1018.93
2023-06-04T05:50:36.812Z,1018.97
2023-06-04T05:51:37.473Z,1019.00
2023-06-04T05:52:37.447Z,1019.00
2023-06-04T05:53:36.767Z,1018.93
2023-06-04T05:54:37.438Z,1018.87
2023-06-04T05:55:39.906Z,1018.84
2023-06-04T05:56:37.428Z,1018.87
2023-06-04T05:57:36.880Z,1018.88
2023-06-04T05:58:37.395Z,1018.91
2023-06-04T05:59:36.680Z,1018.85
2023-06-04T06:00:37.378Z,1018.83
2023-06-04T06:01:37.362Z,1018.87
2023-06-04T06:02:37.412Z,1018.82
2023-06-04T06:03:37.478Z,1018.85
2023-06-04T06:04:36.866Z,1018.85
2023-06-04T06:05:37.320Z,1018.86
2023-06-04T06:06:37.292Z,1018.86
2023-06-04T06:07:37.308Z,1018.89
2023-06-04T06:08:37.287Z,1018.86
2023-06-04T06:09:36.603Z,1018.94
2023-06-04T06:10:36.589Z,1019.02
2023-06-04T06:11:36.580Z,1019.11
2023-06-04T06:12:36.570Z,1019.16
2023-06-04T06:13:37.249Z,1019.16
2023-06-04T06:14:37.222Z,1019.16
2023-06-04T06:15:36.572Z,1019.22
2023-06-04T06:16:37.186Z,1019.18
2023-06-04T06:17:37.239Z,1019.22
2023-06-04T06:18:36.495Z,1019.19
2023-06-04T06:19:36.471Z,1019.20
2023-06-04T06:20:37.143Z,1019.24
2023-06-04T06:21:37.154Z,1019.27
2023-06-04T06:22:37.138Z,1019.35
2023-06-04T06:23:36.562Z,1019.40
2023-06-04T06:24:37.119Z,1019.38
2023-06-04T06:25:37.095Z,1019.35
2023-06-04T06:26:36.415Z,1019.38
2023-06-04T06:27:36.392Z,1019.40
2023-06-04T06:28:36.412Z,1019.38
2023-06-04T06:29:37.065Z,1019.39
2023-06-04T06:30:36.403Z,1019.36
2023-06-04T06:31:37.101Z,1019.30
2023-06-04T06:32:37.114Z,1019.27
2023-06-04T06:33:37.025Z,1019.37
2023-06-04T06:34:36.335Z,1019.36
2023-06-04T06:35:36.328Z,1019.32
2023-06-04T06:36:36.994Z,1019.31
2023-06-04T06:37:36.987Z,1019.23
2023-06-04T06:38:36.339Z,1019.26
2023-06-04T06:39:36.951Z,1019.27
2023-06-04T06:40:36.953Z,1019.18
2023-06-04T06:41:36.938Z,1019.15
2023-06-04T06:42:36.930Z,1019.17
2023-06-04T06:43:36.923Z,1019.19
2023-06-04T06:44:36.910Z,1019.15
2023-06-04T06:45:38.004Z,1019.14
2023-06-04T06:46:36.966Z,1019.16
2023-06-04T06:47:36.338Z,1019.13
2023-06-04T06:48:36.880Z,1019.12
2023-06-04T06:49:36.181Z,1019.20
2023-06-04T06:50:36.916Z,1019.15
2023-06-04T06:51:36.341Z,1019.13
2023-06-04T06:52:36.300Z,1019.10
2023-06-04T06:53:36.171Z,1019.17
2023-06-04T06:54:36.806Z,1019.16
2023-06-04T06:55:36.817Z,1019.16
2023-06-04T06:56:36.791Z,1019.18
2023-06-04T06:57:36.802Z,1019.13
2023-06-04T06:58:36.094Z,1019.20
2023-06-04T06:59:36.776Z,1019.20
2023-06-04T07:00:36.101Z,1019.23
2023-06-04T07:01:36.822Z,1019.18
2023-06-04T07:02:36.752Z,1019.17
2023-06-04T07:03:36.708Z,1019.17
2023-06-04T07:04:36.697Z,1019.20
2023-06-04T07:05:36.688Z,1019.24
2023-06-04T07:06:36.672Z,1019.20
2023-06-04T07:07:36.651Z,1019.17
2023-06-04T07:08:36.669Z,1019.21
2023-06-04T07:09:36.650Z,1019.24
2023-06-04T07:10:36.637Z,1019.28
2023-06-04T07:11:36.630Z,1019.32
2023-06-04T07:12:36.594Z,1019.30
2023-06-04T07:13:36.597Z,1019.32
2023-06-04T07:14:36.587Z,1019.32
2023-06-04T07:15:35.889Z,1019.29
2023-06-04T07:16:36.610Z,1019.33
2023-06-04T07:17:36.550Z,1019.36
2023-06-04T07:18:36.547Z,1019.32
2023-06-04T07:19:36.532Z,1019.27
2023-06-04T07:20:35.828Z,1019.30
2023-06-04T07:21:35.836Z,1019.31
2023-06-04T07:22:36.502Z,1019.30
2023-06-04T07:23:35.881Z,1019.29
2023-06-04T07:24:36.485Z,1019.29
2023-06-04T07:25:36.498Z,1019.31
2023-06-04T07:26:36.448Z,1019.26
2023-06-04T07:27:35.783Z,1019.28
2023-06-04T07:28:36.453Z,1019.28
2023-06-04T07:29:36.428Z,1019.25
2023-06-04T07:30:36.403Z,1019.24
2023-06-04T07:31:36.459Z,1019.23
2023-06-04T07:32:35.778Z,1019.20
2023-06-04T07:33:35.689Z,1019.22
2023-06-04T07:34:35.687Z,1019.26
2023-06-04T07:35:36.364Z,1019.27
2023-06-04T07:36:36.355Z,1019.23
2023-06-04T07:37:36.351Z,1019.27
2023-06-04T07:38:36.331Z,1019.22
2023-06-04T07:39:35.636Z,1019.27
2023-06-04T07:40:35.648Z,1019.28
2023-06-04T07:41:35.627Z,1019.27
2023-06-04T07:42:36.290Z,1019.26
2023-06-04T07:43:36.292Z,1019.25
2023-06-04T07:44:36.256Z,1019.26
2023-06-04T07:45:36.352Z,1019.27
2023-06-04T07:46:36.410Z,1019.28
2023-06-04T07:47:36.253Z,1019.29
2023-06-04T07:48:36.235Z,1019.23
2023-06-04T07:49:38.487Z,1019.19
2023-06-04T07:50:40.317Z,1019.23
2023-06-04T07:51:36.191Z,1019.22
2023-06-04T07:52:36.200Z,1019.24
2023-06-04T07:53:36.181Z,1019.23
2023-06-04T07:54:36.233Z,1019.24
2023-06-04T07:55:35.868Z,1019.16
2023-06-04T07:56:35.762Z,1019.23
2023-06-04T07:57:35.590Z,1019.27
2023-06-04T07:58:36.220Z,1019.26
2023-06-04T07:59:35.568Z,1019.21
2023-06-04T08:00:35.656Z,1019.27
2023-06-04T08:01:35.409Z,1019.29
2023-06-04T08:02:36.121Z,1019.28
2023-06-04T08:03:35.683Z,1019.30
2023-06-04T08:04:36.083Z,1019.37
2023-06-04T08:05:36.314Z,1019.35
2023-06-04T08:06:36.037Z,1019.29
2023-06-04T08:07:36.020Z,1019.34
2023-06-04T08:08:36.016Z,1019.30
2023-06-04T08:09:36.009Z,1019.30
2023-06-04T08:10:35.320Z,1019.30
2023-06-04T08:11:35.314Z,1019.31
2023-06-04T08:12:35.961Z,1019.27
2023-06-04T08:13:35.973Z,1019.25
2023-06-04T08:14:35.958Z,1019.23
2023-06-04T08:15:35.252Z,1019.20
2023-06-04T08:16:36.020Z,1019.18
2023-06-04T08:17:35.977Z,1019.20
2023-06-04T08:18:35.933Z,1019.12
2023-06-04T08:19:35.941Z,1019.15
2023-06-04T08:20:35.213Z,1019.14
2023-06-04T08:21:35.872Z,1019.11
2023-06-04T08:22:35.858Z,1019.10
2023-06-04T08:23:35.178Z,1019.08
2023-06-04T08:24:35.861Z,1019.09
2023-06-04T08:25:35.849Z,1019.10
2023-06-04T08:26:35.167Z,1019.12
2023-06-04T08:27:35.822Z,1019.12
2023-06-04T08:28:35.819Z,1019.23
2023-06-04T08:29:35.146Z,1019.13
2023-06-04T08:30:35.791Z,1019.14
2023-06-04T08:31:35.152Z,1019.13
2023-06-04T08:32:35.109Z,1019.12
2023-06-04T08:33:35.063Z,1019.15
2023-06-04T08:34:35.758Z,1019.15
2023-06-04T08:35:35.723Z,1019.15
2023-06-04T08:36:35.093Z,1019.12
2023-06-04T08:37:35.730Z,1019.12
2023-06-04T08:38:35.706Z,1019.15
2023-06-04T08:39:35.714Z,1019.13
2023-06-04T08:40:35.671Z,1019.16
2023-06-04T08:41:35.677Z,1019.14
2023-06-04T08:42:35.685Z,1019.25
2023-06-04T08:43:34.962Z,1019.22
2023-06-04T08:44:34.947Z,1019.21
2023-06-04T08:45:35.024Z,1019.20
2023-06-04T08:46:35.627Z,1019.23
2023-06-04T08:47:35.658Z,1019.22
2023-06-04T08:48:35.607Z,1019.19
2023-06-04T08:49:35.580Z,1019.24
2023-06-04T08:50:35.568Z,1019.16
2023-06-04T08:51:35.580Z,1019.24
2023-06-04T08:52:35.570Z,1019.23
2023-06-04T08:53:35.611Z,1019.19
2023-06-04T08:54:34.877Z,1019.20
2023-06-04T08:55:34.842Z,1019.14
2023-06-04T08:56:35.550Z,1019.19
2023-06-04T08:57:35.511Z,1019.21
2023-06-04T08:58:34.804Z,1019.18
2023-06-04T08:59:34.813Z,1019.18
2023-06-04T09:00:35.478Z,1019.13
2023-06-04T09:01:34.809Z,1019.19
2023-06-04T09:02:35.494Z,1019.15
2023-06-04T09:03:34.881Z,1019.18
2023-06-04T09:04:35.694Z,1019.13
2023-06-04T09:05:35.429Z,1019.11
2023-06-04T09:06:35.426Z,1019.14
2023-06-04T09:07:34.715Z,1019.18
2023-06-04T09:08:34.729Z,1019.31
2023-06-04T09:09:34.749Z,1019.17
2023-06-04T09:10:35.369Z,1019.22
2023-06-04T09:11:35.363Z,1019.14
2023-06-04T09:12:35.348Z,1019.20
2023-06-04T09:13:34.667Z,1019.18
2023-06-04T09:14:35.328Z,1019.19
2023-06-04T09:15:35.334Z,1019.16
2023-06-04T09:16:35.329Z,1019.20
2023-06-04T09:17:35.294Z,1019.19
2023-06-04T09:18:35.262Z,1019.20
2023-06-04T09:19:34.574Z,1019.20
2023-06-04T09:20:34.571Z,1019.31
2023-06-04T09:21:35.248Z,1019.28
2023-06-04T09:22:35.221Z,1019.23
2023-06-04T09:23:35.270Z,1019.25
2023-06-04T09:24:35.261Z,1019.24
2023-06-04T09:25:35.204Z,1019.23
2023-06-04T09:26:35.202Z,1019.21
2023-06-04T09:27:35.169Z,1019.28
2023-06-04T09:28:35.179Z,1019.22
2023-06-04T09:29:35.165Z,1019.21
2023-06-04T09:30:34.465Z,1019.23
2023-06-04T09:31:35.167Z,1019.23
2023-06-04T09:32:34.469Z,1019.21
2023-06-04T09:33:34.433Z,1019.19
2023-06-04T09:34:35.113Z,1019.13
2023-06-04T09:35:35.110Z,1019.22
2023-06-04T09:36:35.082Z,1019.21
2023-06-04T09:37:34.396Z,1019.17
2023-06-04T09:38:35.075Z,1019.24
2023-06-04T09:39:36.819Z,1019.24
2023-06-04T09:40:36.810Z,1019.25
2023-06-04T09:41:36.820Z,1019.20
2023-06-04T09:42:35.278Z,1019.23
2023-06-04T09:43:36.772Z,1019.19
2023-06-04T09:44:36.766Z,1019.23
2023-06-04T09:45:37.037Z,1019.21
2023-06-04T09:46:36.795Z,1019.20
2023-06-04T09:47:36.867Z,1019.20
2023-06-04T09:48:36.707Z,1019.16
2023-06-04T09:49:34.970Z,1019.18
2023-06-04T09:50:36.722Z,1019.17
2023-06-04T09:51:36.183Z,1019.28
2023-06-04T09:52:36.669Z,1019.25
2023-06-04T09:53:36.669Z,1019.28
2023-06-04T09:54:36.660Z,1019.21
2023-06-04T09:55:36.646Z,1019.16
2023-06-04T09:56:34.882Z,1019.22
2023-06-04T09:57:36.641Z,1019.28
2023-06-04T09:58:36.643Z,1019.23
2023-06-04T09:59:34.830Z,1019.21
2023-06-04T10:00:34.849Z,1019.30
2023-06-04T10:01:35.622Z,1019.25
2023-06-04T10:02:34.877Z,1019.21
2023-06-04T10:03:34.863Z,1019.27
2023-06-04T10:04:34.780Z,1019.25
2023-06-04T10:05:34.788Z,1019.26
2023-06-04T10:06:34.772Z,1019.24
2023-06-04T10:07:34.804Z,1019.23
2023-06-04T10:08:34.750Z,1019.30
2023-06-04T10:09:34.718Z,1019.26
2023-06-04T10:10:34.733Z,1019.17
2023-06-04T10:11:34.720Z,1019.24
2023-06-04T10:12:34.708Z,1019.20
2023-06-04T10:13:34.679Z,1019.26
2023-06-04T10:14:36.449Z,1019.17
2023-06-04T10:15:34.709Z,1019.12
2023-06-04T10:16:35.263Z,1019.17
2023-06-04T10:17:34.041Z,1019.20
2023-06-04T10:18:34.632Z,1019.13
2023-06-04T10:19:34.642Z,1019.17
2023-06-04T10:20:34.623Z,1019.14
2023-06-04T10:21:34.613Z,1019.16
2023-06-04T10:22:34.585Z,1019.17
2023-06-04T10:23:34.593Z,1019.09
2023-06-04T10:24:34.589Z,1019.14
2023-06-04T10:25:34.577Z,1019.24
2023-06-04T10:26:34.562Z,1019.29
2023-06-04T10:27:34.569Z,1019.31
2023-06-04T10:28:33.846Z,1019.42
2023-06-04T10:29:34.789Z,1019.34
2023-06-04T10:30:34.520Z,1019.41
2023-06-04T10:31:34.019Z,1019.33
2023-06-04T10:32:34.520Z,1019.29
2023-06-04T10:33:34.496Z,1019.39
2023-06-04T10:34:34.477Z,1019.26
2023-06-04T10:35:33.824Z,1019.33
2023-06-04T10:36:33.800Z,1019.27
2023-06-04T10:37:34.491Z,1019.33
2023-06-04T10:38:36.194Z,1019.31
2023-06-04T10:39:34.427Z,1019.35
2023-06-04T10:40:36.183Z,1019.37
2023-06-04T10:41:34.674Z,1019.33
2023-06-04T10:42:36.136Z,1019.27
2023-06-04T10:43:36.132Z,1019.29
2023-06-04T10:44:36.134Z,1019.31
2023-06-04T10:45:36.158Z,1019.37
2023-06-04T10:46:36.144Z,1019.25
2023-06-04T10:47:36.101Z,1019.25
2023-06-04T10:48:36.081Z,1019.16
2023-06-04T10:49:36.087Z,1019.06
2023-06-04T10:50:34.294Z,1018.99
2023-06-04T10:51:34.302Z,1019.08
2023-06-04T10:52:36.056Z,1019.01
2023-06-04T10:53:36.042Z,1018.98
2023-06-04T10:54:36.024Z,1018.89
2023-06-04T10:55:34.239Z,1018.96
2023-06-04T10:56:34.246Z,1019.00
2023-06-04T10:57:33.615Z,1018.97
2023-06-04T10:58:33.555Z,1018.93
2023-06-04T10:59:33.536Z,1018.91
2023-06-04T11:00:34.211Z,1018.86
2023-06-04T11:01:33.534Z,1018.91
2023-06-04T11:02:35.989Z,1018.96
2023-06-04T11:03:35.934Z,1018.95
2023-06-04T11:04:35.942Z,1018.94
2023-06-04T11:05:34.150Z,1019.01
2023-06-04T11:06:34.143Z,1018.88
2023-06-04T11:07:34.185Z,1018.99
2023-06-04T11:08:35.889Z,1018.94
2023-06-04T11:09:34.831Z,1018.93
2023-06-04T11:10:34.342Z,1018.87
2023-06-04T11:11:34.081Z,1018.89
2023-06-04T11:12:34.070Z,1018.80
2023-06-04T11:13:35.835Z,1018.92
2023-06-04T11:14:35.814Z,1018.89
2023-06-04T11:15:35.820Z,1018.90
2023-06-04T11:16:35.811Z,1018.85
2023-06-04T11:17:34.032Z,1018.87
2023-06-04T11:18:35.860Z,1018.80
2023-06-04T11:19:33.994Z,1018.77
2023-06-04T11:20:33.987Z,1018.89
2023-06-04T11:21:33.975Z,1018.86
2023-06-04T11:22:35.741Z,1018.83
2023-06-04T11:23:33.977Z,1018.84
2023-06-04T11:24:33.959Z,1018.85
2023-06-04T11:25:35.706Z,1018.87
2023-06-04T11:26:33.916Z,1018.84
2023-06-04T11:27:36.923Z,1018.82
2023-06-04T11:28:33.900Z,1018.80
2023-06-04T11:29:33.894Z,1018.79
2023-06-04T11:30:33.878Z,1018.80
2023-06-04T11:31:33.987Z,1018.85
2023-06-04T11:32:33.949Z,1018.80
2023-06-04T11:33:33.846Z,1018.85
2023-06-04T11:34:33.840Z,1018.77
2023-06-04T11:35:33.830Z,1018.79
2023-06-04T11:36:33.802Z,1018.74
2023-06-04T11:37:34.068Z,1018.71
2023-06-04T11:38:33.800Z,1018.73
2023-06-04T11:39:33.792Z,1018.69
2023-06-04T11:40:33.782Z,1018.76
2023-06-04T11:41:33.768Z,1018.74
2023-06-04T11:42:33.750Z,1018.75
2023-06-04T11:43:33.748Z,1018.78
2023-06-04T11:44:33.767Z,1018.75
2023-06-04T11:45:33.729Z,1018.76
2023-06-04T11:46:35.488Z,1018.77
2023-06-04T11:47:35.467Z,1018.86
2023-06-04T11:48:33.765Z,1018.80
2023-06-04T11:49:33.682Z,1018.75
2023-06-04T11:50:33.647Z,1018.75
2023-06-04T11:51:33.641Z,1018.79
2023-06-04T11:52:33.653Z,1018.72
2023-06-04T11:53:33.637Z,1018.70
2023-06-04T11:54:33.633Z,1018.67
2023-06-04T11:55:33.597Z,1018.70
2023-06-04T11:56:33.609Z,1018.69
2023-06-04T11:57:33.605Z,1018.71
2023-06-04T11:58:33.615Z,1018.72
2023-06-04T11:59:33.581Z,1018.66
2023-06-04T12:00:33.556Z,1018.69
2023-06-04T12:01:33.559Z,1018.65
2023-06-04T12:02:33.570Z,1018.57
2023-06-04T12:03:33.583Z,1018.58
2023-06-04T12:04:33.516Z,1018.67
2023-06-04T12:05:33.555Z,1018.71